sensor_id;sensor_type;location;lat;lon;timestamp;temperature;humidity
24454;DHT22;12627;50.860;5.714;2022-10-03T00:00:09;9.60;99.90
24454;DHT22;12627;50.860;5.714;2022-10-03T00:03:07;9.30;99.90
24454;DHT22;12627;50.860;5.714;2022-10-03T00:05:50;9.30;99.90
24454;DHT22;12627;50.860;5.714;2022-10-03T00:08:30;9.60;99.90
24454;DHT22;12627;50.860;5.714;2022-10-03T00:11:06;9.90;99.90
24454;DHT22;12627;50.860;5.714;2022-10-03T00:13:44;9.90;99.90
24454;DHT22;12627;50.860;5.714;2022-10-03T00:16:19;9.70;99.90
24454;DHT22;12627;50.860;5.714;2022-10-03T00:18:55;9.70;99.90
24454;DHT22;12627;50.860;5.714;2022-10-03T00:21:38;9.80;99.90
24454;DHT22;12627;50.860;5.714;2022-10-03T00:24:19;10.00;99.90
24454;DHT22;12627;50.860;5.714;2022-10-03T00:26:54;9.90;99.90
24454;DHT22;12627;50.860;5.714;2022-10-03T00:29:54;10.10;99.90
24454;DHT22;12627;50.860;5.714;2022-10-03T00:32:32;10.00;99.90
24454;DHT22;12627;50.860;5.714;2022-10-03T00:35:10;10.00;99.90
24454;DHT22;12627;50.860;5.714;2022-10-03T00:37:45;10.00;99.90
24454;DHT22;12627;50.860;5.714;2022-10-03T00:40:52;10.00;99.90
24454;DHT22;12627;50.860;5.714;2022-10-03T00:44:00;9.90;99.90
24454;DHT22;12627;50.860;5.714;2022-10-03T00:46:58;9.90;99.90
24454;DHT22;12627;50.860;5.714;2022-10-03T00:50:02;9.90;99.90
24454;DHT22;12627;50.860;5.714;2022-10-03T00:52:46;9.90;99.90
24454;DHT22;12627;50.860;5.714;2022-10-03T00:55:24;10.00;99.90
24454;DHT22;12627;50.860;5.714;2022-10-03T00:58:27;9.90;99.90
24454;DHT22;12627;50.860;5.714;2022-10-03T01:03:54;9.80;99.90
24454;DHT22;12627;50.860;5.714;2022-10-03T01:06:33;9.70;99.90
24454;DHT22;12627;50.860;5.714;2022-10-03T01:09:19;9.80;99.90
24454;DHT22;12627;50.860;5.714;2022-10-03T01:12:18;9.80;99.90
24454;DHT22;12627;50.860;5.714;2022-10-03T01:15:06;9.80;99.90
24454;DHT22;12627;50.860;5.714;2022-10-03T01:17:41;9.70;99.90
24454;DHT22;12627;50.860;5.714;2022-10-03T01:20:26;9.70;99.90
24454;DHT22;12627;50.860;5.714;2022-10-03T01:23:14;9.70;99.90
24454;DHT22;12627;50.860;5.714;2022-10-03T01:25:51;9.60;99.90
24454;DHT22;12627;50.860;5.714;2022-10-03T01:28:39;9.60;99.90
24454;DHT22;12627;50.860;5.714;2022-10-03T01:31:32;9.60;99.90
24454;DHT22;12627;50.860;5.714;2022-10-03T01:34:09;9.50;99.90
24454;DHT22;12627;50.860;5.714;2022-10-03T01:36:42;9.50;99.90
24454;DHT22;12627;50.860;5.714;2022-10-03T01:39:17;9.60;99.90
24454;DHT22;12627;50.860;5.714;2022-10-03T01:41:51;9.60;99.90
24454;DHT22;12627;50.860;5.714;2022-10-03T01:44:30;9.60;99.90
24454;DHT22;12627;50.860;5.714;2022-10-03T01:47:16;9.60;99.90
24454;DHT22;12627;50.860;5.714;2022-10-03T01:49:51;9.60;99.90
24454;DHT22;12627;50.860;5.714;2022-10-03T01:52:30;9.60;99.90
24454;DHT22;12627;50.860;5.714;2022-10-03T01:55:05;9.50;99.90
24454;DHT22;12627;50.860;5.714;2022-10-03T01:57:39;9.60;99.90
24454;DHT22;12627;50.860;5.714;2022-10-03T02:00:12;9.50;99.90
24454;DHT22;12627;50.860;5.714;2022-10-03T02:02:44;9.50;99.90
24454;DHT22;12627;50.860;5.714;2022-10-03T02:05:18;9.50;99.90
24454;DHT22;12627;50.860;5.714;2022-10-03T02:07:54;9.50;99.90
24454;DHT22;12627;50.860;5.714;2022-10-03T02:10:31;9.50;99.90
24454;DHT22;12627;50.860;5.714;2022-10-03T02:13:09;9.40;99.90
24454;DHT22;12627;50.860;5.714;2022-10-03T02:15:56;9.40;99.90
24454;DHT22;12627;50.860;5.714;2022-10-03T02:18:36;9.40;99.90
24454;DHT22;12627;50.860;5.714;2022-10-03T02:21:10;9.40;99.90
24454;DHT22;12627;50.860;5.714;2022-10-03T02:23:42;9.30;99.90
24454;DHT22;12627;50.860;5.714;2022-10-03T02:26:44;9.30;99.90
24454;DHT22;12627;50.860;5.714;2022-10-03T02:29:29;9.30;99.90
24454;DHT22;12627;50.860;5.714;2022-10-03T02:32:33;9.40;99.90
24454;DHT22;12627;50.860;5.714;2022-10-03T02:35:14;9.30;99.90
24454;DHT22;12627;50.860;5.714;2022-10-03T02:44:00;9.40;99.90
24454;DHT22;12627;50.860;5.714;2022-10-03T02:47:06;9.30;99.90
24454;DHT22;12627;50.860;5.714;2022-10-03T02:50:27;9.30;99.90
24454;DHT22;12627;50.860;5.714;2022-10-03T02:53:26;9.30;99.90
24454;DHT22;12627;50.860;5.714;2022-10-03T02:59:35;9.30;99.90
24454;DHT22;12627;50.860;5.714;2022-10-03T03:02:25;9.30;99.90
24454;DHT22;12627;50.860;5.714;2022-10-03T03:05:30;9.30;99.90
24454;DHT22;12627;50.860;5.714;2022-10-03T03:08:23;9.30;99.90
24454;DHT22;12627;50.860;5.714;2022-10-03T03:11:37;9.40;99.90
24454;DHT22;12627;50.860;5.714;2022-10-03T03:17:42;9.40;99.90
24454;DHT22;12627;50.860;5.714;2022-10-03T03:20:33;9.30;99.90
24454;DHT22;12627;50.860;5.714;2022-10-03T03:26:12;9.30;99.90
24454;DHT22;12627;50.860;5.714;2022-10-03T03:28:45;9.30;99.90
24454;DHT22;12627;50.860;5.714;2022-10-03T03:31:18;9.20;99.90
24454;DHT22;12627;50.860;5.714;2022-10-03T03:33:56;9.20;99.90
24454;DHT22;12627;50.860;5.714;2022-10-03T03:36:34;9.20;99.90
24454;DHT22;12627;50.860;5.714;2022-10-03T03:39:14;9.20;99.90
24454;DHT22;12627;50.860;5.714;2022-10-03T03:41:55;9.10;99.90
24454;DHT22;12627;50.860;5.714;2022-10-03T03:47:49;9.00;99.90
24454;DHT22;12627;50.860;5.714;2022-10-03T03:50:32;8.90;99.90
24454;DHT22;12627;50.860;5.714;2022-10-03T03:53:26;8.90;99.90
24454;DHT22;12627;50.860;5.714;2022-10-03T03:56:16;8.80;99.90
24454;DHT22;12627;50.860;5.714;2022-10-03T03:58:54;8.80;99.90
24454;DHT22;12627;50.860;5.714;2022-10-03T04:04:29;8.80;99.90
24454;DHT22;12627;50.860;5.714;2022-10-03T04:07:06;8.80;99.90
24454;DHT22;12627;50.860;5.714;2022-10-03T04:09:57;8.70;99.90
24454;DHT22;12627;50.860;5.714;2022-10-03T04:12:38;8.70;99.90
24454;DHT22;12627;50.860;5.714;2022-10-03T04:15:33;8.70;99.90
24454;DHT22;12627;50.860;5.714;2022-10-03T04:18:26;8.60;99.90
24454;DHT22;12627;50.860;5.714;2022-10-03T04:21:36;8.60;99.90
24454;DHT22;12627;50.860;5.714;2022-10-03T04:24:22;8.70;99.90
24454;DHT22;12627;50.860;5.714;2022-10-03T04:27:07;8.60;99.90
24454;DHT22;12627;50.860;5.714;2022-10-03T04:29:53;8.60;99.90
24454;DHT22;12627;50.860;5.714;2022-10-03T04:38:25;8.60;99.90
24454;DHT22;12627;50.860;5.714;2022-10-03T04:41:05;8.70;99.90
24454;DHT22;12627;50.860;5.714;2022-10-03T04:43:41;8.70;99.90
24454;DHT22;12627;50.860;5.714;2022-10-03T04:46:21;8.80;99.90
24454;DHT22;12627;50.860;5.714;2022-10-03T04:48:57;8.80;99.90
24454;DHT22;12627;50.860;5.714;2022-10-03T04:51:44;8.80;99.90
24454;DHT22;12627;50.860;5.714;2022-10-03T04:54:19;8.80;99.90
24454;DHT22;12627;50.860;5.714;2022-10-03T04:56:51;8.80;99.90
24454;DHT22;12627;50.860;5.714;2022-10-03T04:59:41;8.80;99.90
24454;DHT22;12627;50.860;5.714;2022-10-03T05:02:28;8.80;99.90
24454;DHT22;12627;50.860;5.714;2022-10-03T05:05:12;8.90;99.90
24454;DHT22;12627;50.860;5.714;2022-10-03T05:07:49;8.90;99.90
24454;DHT22;12627;50.860;5.714;2022-10-03T05:10:55;8.80;99.90
24454;DHT22;12627;50.860;5.714;2022-10-03T05:13:33;8.90;99.90
24454;DHT22;12627;50.860;5.714;2022-10-03T05:16:16;8.90;99.90
24454;DHT22;12627;50.860;5.714;2022-10-03T05:18:49;8.80;99.90
24454;DHT22;12627;50.860;5.714;2022-10-03T05:21:26;8.80;99.90
24454;DHT22;12627;50.860;5.714;2022-10-03T05:23:59;9.00;99.90
24454;DHT22;12627;50.860;5.714;2022-10-03T05:26:40;9.00;99.90
24454;DHT22;12627;50.860;5.714;2022-10-03T05:29:18;9.00;99.90
24454;DHT22;12627;50.860;5.714;2022-10-03T05:31:52;9.00;99.90
24454;DHT22;12627;50.860;5.714;2022-10-03T05:34:33;8.90;99.90
24454;DHT22;12627;50.860;5.714;2022-10-03T05:37:29;9.00;99.90
24454;DHT22;12627;50.860;5.714;2022-10-03T05:40:03;9.10;99.90
24454;DHT22;12627;50.860;5.714;2022-10-03T05:42:44;9.00;99.90
24454;DHT22;12627;50.860;5.714;2022-10-03T05:45:24;9.00;99.90
24454;DHT22;12627;50.860;5.714;2022-10-03T05:48:11;9.20;99.90
24454;DHT22;12627;50.860;5.714;2022-10-03T05:54:10;9.10;99.90
24454;DHT22;12627;50.860;5.714;2022-10-03T05:57:02;9.30;99.90
24454;DHT22;12627;50.860;5.714;2022-10-03T05:59:55;9.30;99.90
24454;DHT22;12627;50.860;5.714;2022-10-03T06:02:43;9.30;99.90
24454;DHT22;12627;50.860;5.714;2022-10-03T06:05:26;9.30;99.90
24454;DHT22;12627;50.860;5.714;2022-10-03T06:08:22;9.30;99.90
24454;DHT22;12627;50.860;5.714;2022-10-03T06:11:00;9.40;99.90
24454;DHT22;12627;50.860;5.714;2022-10-03T06:13:40;9.40;99.90
24454;DHT22;12627;50.860;5.714;2022-10-03T06:16:23;9.40;99.90
24454;DHT22;12627;50.860;5.714;2022-10-03T06:19:11;9.40;99.90
24454;DHT22;12627;50.860;5.714;2022-10-03T06:34:42;9.60;99.90
24454;DHT22;12627;50.860;5.714;2022-10-03T06:40:47;9.60;99.90
24454;DHT22;12627;50.860;5.714;2022-10-03T06:43:45;9.60;99.90
24454;DHT22;12627;50.860;5.714;2022-10-03T06:46:44;9.80;99.90
24454;DHT22;12627;50.860;5.714;2022-10-03T06:49:47;9.80;99.90
24454;DHT22;12627;50.860;5.714;2022-10-03T06:52:35;9.90;99.90
24454;DHT22;12627;50.860;5.714;2022-10-03T06:55:31;9.80;99.90
24454;DHT22;12627;50.860;5.714;2022-10-03T06:58:38;9.90;99.90
24454;DHT22;12627;50.860;5.714;2022-10-03T07:01:51;10.00;99.90
24454;DHT22;12627;50.860;5.714;2022-10-03T07:05:05;10.00;99.90
